Pagrindinis puslapis
METAR-TAF:

METAR-TAF

Oro uostai :

Cayman Brac, Kaimanų salos

platuma: 19-41-13N, ilguma: 079-52-58W, Aukštis: 2 m

Dabartinis oras

Ataskaita buvo paskelbta 8 valandos ir 47 minutes, ne 21:00 UTC
Vėjas 6 kt iš Pietryčių
Temperatūra 30°C
Drėgmė 70%
Slėgis 1013 hPa
Matomumas 10 km arba daugiau
Mažai debesys ne aukštis 1800 ft

METAR: MWCB 292100Z 13006KT 9999 FEW018 30/24 Q1013

Laikas: 00:47 (05:47 UTC)

Prognozė

Ataskaita buvo paskelbta 12 valandos ir 47 minutes, ne 17:00 UTC
Prognozė galioja nuo 29 metu 18 UTC su 30 metu 18 UTC
Vėjas 10 kt iš Rytų
Matomumas: 9000 m
Išsisklaidę debesys ne aukštis 1800 ft, aukštai iškilę kamuoliniai debesys.
Liūtis kaimynystėje
Tapsmas
nuo 29 metu 21 UTC su 30 metu 00 UTC
Vėjas 6 kt iš Rytų/Šiaurės Rytų
Matomumas 10 km arba daugiau
Mažai debesys ne aukštis 1800 ft

TAF: MWCB 291700Z 2918/3018 09010KT 9000 VCSH SCT018TCU BECMG 2921/3000 07006KT 9999 FEW018

Orai ataskaitas ir orų prognozės (METAR, TAF).

turimą stotys yra geltonos ir raudonos taškus žemėlapyje.

Perkelti pele per norėdami pamatyti stoties vardą.

Tada spustelėkite, norėdami matyti oro stebėjimo ir prognozės.

Norėdami pakeisti žemėlapį: spustelėkite ant žalios mygtukų su juodo kryžiaus žemyn,; žalią mygtuką su brūkšneliu, jei norite nutolinti; arba žalių rodyklių gretimoms žemėlapius.


METAR-TAF: